sensor_id;sensor_type;location;lat;lon;timestamp;P1;durP1;ratioP1;P2;durP2;ratioP2
13793;SDS011;31160;49.500;7.772;2023-04-29T00:01:12;2.40;;;1.93;;
13793;SDS011;31160;49.500;7.772;2023-04-29T00:03:39;2.73;;;1.97;;
13793;SDS011;31160;49.500;7.772;2023-04-29T00:06:06;2.10;;;1.90;;
13793;SDS011;31160;49.500;7.772;2023-04-29T00:08:33;4.67;;;2.40;;
13793;SDS011;31160;49.500;7.772;2023-04-29T00:10:59;2.97;;;1.93;;
13793;SDS011;31160;49.500;7.772;2023-04-29T00:13:26;4.03;;;1.60;;
13793;SDS011;31160;49.500;7.772;2023-04-29T00:15:53;2.17;;;1.37;;
13793;SDS011;31160;49.500;7.772;2023-04-29T00:18:20;2.13;;;1.67;;
13793;SDS011;31160;49.500;7.772;2023-04-29T00:20:46;2.83;;;1.20;;
13793;SDS011;31160;49.500;7.772;2023-04-29T00:23:13;3.27;;;1.50;;
13793;SDS011;31160;49.500;7.772;2023-04-29T00:25:40;3.53;;;1.50;;
13793;SDS011;31160;49.500;7.772;2023-04-29T00:28:07;6.23;;;1.73;;
13793;SDS011;31160;49.500;7.772;2023-04-29T00:30:33;2.87;;;2.00;;
13793;SDS011;31160;49.500;7.772;2023-04-29T00:33:00;5.70;;;1.70;;
13793;SDS011;31160;49.500;7.772;2023-04-29T00:35:28;3.60;;;2.03;;
13793;SDS011;31160;49.500;7.772;2023-04-29T00:37:54;5.73;;;1.83;;
13793;SDS011;31160;49.500;7.772;2023-04-29T00:40:21;3.20;;;2.17;;
13793;SDS011;31160;49.500;7.772;2023-04-29T00:42:48;2.97;;;2.00;;
13793;SDS011;31160;49.500;7.772;2023-04-29T00:45:15;3.47;;;1.73;;
13793;SDS011;31160;49.500;7.772;2023-04-29T00:47:42;5.47;;;2.00;;
13793;SDS011;31160;49.500;7.772;2023-04-29T00:50:09;4.13;;;1.83;;
13793;SDS011;31160;49.500;7.772;2023-04-29T00:52:36;2.47;;;1.80;;
13793;SDS011;31160;49.500;7.772;2023-04-29T00:55:05;5.03;;;1.70;;
13793;SDS011;31160;49.500;7.772;2023-04-29T00:57:34;1.57;;;1.27;;
13793;SDS011;31160;49.500;7.772;2023-04-29T01:00:00;2.57;;;1.60;;
13793;SDS011;31160;49.500;7.772;2023-04-29T01:02:28;2.07;;;1.40;;
13793;SDS011;31160;49.500;7.772;2023-04-29T01:04:55;2.73;;;1.50;;
13793;SDS011;31160;49.500;7.772;2023-04-29T01:07:25;1.90;;;1.70;;
13793;SDS011;31160;49.500;7.772;2023-04-29T01:10:21;2.60;;;1.37;;
13793;SDS011;31160;49.500;7.772;2023-04-29T01:12:58;3.07;;;1.77;;
13793;SDS011;31160;49.500;7.772;2023-04-29T01:15:53;2.20;;;1.40;;
13793;SDS011;31160;49.500;7.772;2023-04-29T01:18:36;3.90;;;1.53;;
13793;SDS011;31160;49.500;7.772;2023-04-29T01:21:15;2.83;;;1.37;;
13793;SDS011;31160;49.500;7.772;2023-04-29T01:23:43;1.50;;;1.30;;
13793;SDS011;31160;49.500;7.772;2023-04-29T01:26:11;2.00;;;1.30;;
13793;SDS011;31160;49.500;7.772;2023-04-29T01:31:50;4.00;;;1.50;;
13793;SDS011;31160;49.500;7.772;2023-04-29T01:34:47;2.33;;;1.30;;
13793;SDS011;31160;49.500;7.772;2023-04-29T01:38:00;1.40;;;1.20;;
13793;SDS011;31160;49.500;7.772;2023-04-29T01:40:29;2.30;;;1.23;;
13793;SDS011;31160;49.500;7.772;2023-04-29T01:43:07;5.27;;;1.33;;
13793;SDS011;31160;49.500;7.772;2023-04-29T01:45:41;2.57;;;1.40;;
13793;SDS011;31160;49.500;7.772;2023-04-29T01:48:10;2.03;;;1.50;;
13793;SDS011;31160;49.500;7.772;2023-04-29T01:50:39;1.87;;;1.50;;
13793;SDS011;31160;49.500;7.772;2023-04-29T01:53:10;1.60;;;1.37;;
13793;SDS011;31160;49.500;7.772;2023-04-29T01:55:36;1.47;;;1.20;;
13793;SDS011;31160;49.500;7.772;2023-04-29T01:58:13;2.10;;;1.37;;
13793;SDS011;31160;49.500;7.772;2023-04-29T02:01:06;2.00;;;1.30;;
13793;SDS011;31160;49.500;7.772;2023-04-29T02:03:35;4.53;;;1.80;;
13793;SDS011;31160;49.500;7.772;2023-04-29T02:06:04;2.47;;;1.57;;
13793;SDS011;31160;49.500;7.772;2023-04-29T02:08:33;4.27;;;1.63;;
13793;SDS011;31160;49.500;7.772;2023-04-29T02:11:00;3.47;;;1.10;;
13793;SDS011;31160;49.500;7.772;2023-04-29T02:13:37;2.60;;;1.43;;
13793;SDS011;31160;49.500;7.772;2023-04-29T02:16:11;3.60;;;1.33;;
13793;SDS011;31160;49.500;7.772;2023-04-29T02:18:48;3.70;;;1.50;;
13793;SDS011;31160;49.500;7.772;2023-04-29T02:21:15;3.37;;;1.63;;
13793;SDS011;31160;49.500;7.772;2023-04-29T02:23:41;6.13;;;2.30;;
13793;SDS011;31160;49.500;7.772;2023-04-29T02:26:08;2.53;;;1.70;;
13793;SDS011;31160;49.500;7.772;2023-04-29T02:28:36;5.03;;;2.33;;
13793;SDS011;31160;49.500;7.772;2023-04-29T02:31:03;4.87;;;2.23;;
13793;SDS011;31160;49.500;7.772;2023-04-29T02:33:30;2.50;;;1.93;;
13793;SDS011;31160;49.500;7.772;2023-04-29T02:35:58;7.70;;;2.00;;
13793;SDS011;31160;49.500;7.772;2023-04-29T02:38:25;2.23;;;1.70;;
13793;SDS011;31160;49.500;7.772;2023-04-29T02:40:52;3.47;;;1.50;;
13793;SDS011;31160;49.500;7.772;2023-04-29T02:43:20;4.63;;;1.27;;
13793;SDS011;31160;49.500;7.772;2023-04-29T02:45:47;2.80;;;1.87;;
13793;SDS011;31160;49.500;7.772;2023-04-29T02:48:14;1.53;;;1.30;;
13793;SDS011;31160;49.500;7.772;2023-04-29T02:50:41;6.10;;;1.10;;
13793;SDS011;31160;49.500;7.772;2023-04-29T02:53:08;3.47;;;1.63;;
13793;SDS011;31160;49.500;7.772;2023-04-29T02:55:34;1.33;;;1.23;;
13793;SDS011;31160;49.500;7.772;2023-04-29T02:58:06;4.10;;;1.23;;
13793;SDS011;31160;49.500;7.772;2023-04-29T03:00:33;2.27;;;1.30;;
13793;SDS011;31160;49.500;7.772;2023-04-29T03:02:59;5.47;;;1.30;;
13793;SDS011;31160;49.500;7.772;2023-04-29T03:05:27;3.03;;;1.40;;
13793;SDS011;31160;49.500;7.772;2023-04-29T03:07:53;1.93;;;1.73;;
13793;SDS011;31160;49.500;7.772;2023-04-29T03:10:20;2.13;;;1.40;;
13793;SDS011;31160;49.500;7.772;2023-04-29T03:12:47;4.53;;;1.53;;
13793;SDS011;31160;49.500;7.772;2023-04-29T03:15:14;3.20;;;1.83;;
13793;SDS011;31160;49.500;7.772;2023-04-29T03:17:42;1.63;;;1.30;;
13793;SDS011;31160;49.500;7.772;2023-04-29T03:20:11;3.00;;;1.43;;
13793;SDS011;31160;49.500;7.772;2023-04-29T03:22:38;3.43;;;1.70;;
13793;SDS011;31160;49.500;7.772;2023-04-29T03:25:05;10.80;;;1.53;;
13793;SDS011;31160;49.500;7.772;2023-04-29T03:27:32;3.60;;;1.40;;
13793;SDS011;31160;49.500;7.772;2023-04-29T03:29:59;6.73;;;4.37;;
13793;SDS011;31160;49.500;7.772;2023-04-29T03:32:26;1.60;;;1.50;;
13793;SDS011;31160;49.500;7.772;2023-04-29T03:34:53;2.03;;;1.20;;
13793;SDS011;31160;49.500;7.772;2023-04-29T03:37:33;3.43;;;1.63;;
13793;SDS011;31160;49.500;7.772;2023-04-29T03:40:18;1.30;;;1.13;;
13793;SDS011;31160;49.500;7.772;2023-04-29T03:42:45;1.83;;;1.20;;
13793;SDS011;31160;49.500;7.772;2023-04-29T03:45:12;1.87;;;1.27;;
13793;SDS011;31160;49.500;7.772;2023-04-29T03:47:40;3.17;;;1.20;;
13793;SDS011;31160;49.500;7.772;2023-04-29T03:50:06;1.73;;;1.30;;
13793;SDS011;31160;49.500;7.772;2023-04-29T03:52:34;1.67;;;1.30;;
13793;SDS011;31160;49.500;7.772;2023-04-29T03:55:09;11.83;;;1.50;;
13793;SDS011;31160;49.500;7.772;2023-04-29T03:57:38;2.70;;;1.23;;
13793;SDS011;31160;49.500;7.772;2023-04-29T04:00:08;2.37;;;1.30;;
13793;SDS011;31160;49.500;7.772;2023-04-29T04:02:48;1.20;;;1.10;;
13793;SDS011;31160;49.500;7.772;2023-04-29T04:05:15;1.30;;;1.20;;
13793;SDS011;31160;49.500;7.772;2023-04-29T04:07:48;1.10;;;1.00;;
13793;SDS011;31160;49.500;7.772;2023-04-29T04:10:46;2.90;;;2.47;;
13793;SDS011;31160;49.500;7.772;2023-04-29T04:13:25;6.60;;;2.23;;
13793;SDS011;31160;49.500;7.772;2023-04-29T04:15:51;1.57;;;1.47;;
13793;SDS011;31160;49.500;7.772;2023-04-29T04:18:18;1.80;;;1.10;;
13793;SDS011;31160;49.500;7.772;2023-04-29T04:20:45;1.23;;;1.13;;
13793;SDS011;31160;49.500;7.772;2023-04-29T04:23:12;2.70;;;1.47;;
13793;SDS011;31160;49.500;7.772;2023-04-29T04:25:44;2.63;;;1.30;;
13793;SDS011;31160;49.500;7.772;2023-04-29T04:28:34;3.30;;;1.10;;
13793;SDS011;31160;49.500;7.772;2023-04-29T04:31:05;1.50;;;1.40;;
13793;SDS011;31160;49.500;7.772;2023-04-29T04:33:34;3.20;;;1.30;;
13793;SDS011;31160;49.500;7.772;2023-04-29T04:36:00;1.93;;;1.40;;
13793;SDS011;31160;49.500;7.772;2023-04-29T04:38:27;2.23;;;1.13;;
13793;SDS011;31160;49.500;7.772;2023-04-29T04:40:54;2.30;;;1.30;;
13793;SDS011;31160;49.500;7.772;2023-04-29T04:43:33;1.73;;;1.27;;
13793;SDS011;31160;49.500;7.772;2023-04-29T04:46:10;1.50;;;1.00;;
13793;SDS011;31160;49.500;7.772;2023-04-29T04:48:46;2.10;;;1.70;;
13793;SDS011;31160;49.500;7.772;2023-04-29T04:51:13;1.30;;;1.20;;
13793;SDS011;31160;49.500;7.772;2023-04-29T04:53:41;1.27;;;1.17;;
13793;SDS011;31160;49.500;7.772;2023-04-29T04:56:16;2.13;;;1.30;;
13793;SDS011;31160;49.500;7.772;2023-04-29T04:58:43;2.33;;;1.40;;
13793;SDS011;31160;49.500;7.772;2023-04-29T05:01:10;2.80;;;1.37;;
13793;SDS011;31160;49.500;7.772;2023-04-29T05:03:37;1.30;;;1.20;;
13793;SDS011;31160;49.500;7.772;2023-04-29T05:06:04;3.70;;;1.50;;
13793;SDS011;31160;49.500;7.772;2023-04-29T05:08:31;2.40;;;1.80;;
13793;SDS011;31160;49.500;7.772;2023-04-29T05:10:59;6.23;;;1.50;;
13793;SDS011;31160;49.500;7.772;2023-04-29T05:13:26;2.03;;;1.50;;
13793;SDS011;31160;49.500;7.772;2023-04-29T05:15:53;1.37;;;1.27;;
13793;SDS011;31160;49.500;7.772;2023-04-29T05:18:24;4.97;;;1.43;;
13793;SDS011;31160;49.500;7.772;2023-04-29T05:20:51;1.93;;;1.20;;
13793;SDS011;31160;49.500;7.772;2023-04-29T05:23:18;2.07;;;1.20;;
13793;SDS011;31160;49.500;7.772;2023-04-29T05:25:45;5.17;;;1.37;;
13793;SDS011;31160;49.500;7.772;2023-04-29T05:28:12;3.10;;;1.83;;
13793;SDS011;31160;49.500;7.772;2023-04-29T05:30:40;2.07;;;1.23;;
13793;SDS011;31160;49.500;7.772;2023-04-29T05:33:07;5.93;;;1.57;;
13793;SDS011;31160;49.500;7.772;2023-04-29T05:35:34;1.50;;;1.27;;
13793;SDS011;31160;49.500;7.772;2023-04-29T05:38:00;1.97;;;1.27;;
13793;SDS011;31160;49.500;7.772;2023-04-29T05:40:34;1.63;;;1.10;;
13793;SDS011;31160;49.500;7.772;2023-04-29T05:43:33;3.50;;;1.23;;
13793;SDS011;31160;49.500;7.772;2023-04-29T05:45:59;2.63;;;1.30;;
13793;SDS011;31160;49.500;7.772;2023-04-29T05:48:26;2.07;;;1.10;;
13793;SDS011;31160;49.500;7.772;2023-04-29T05:50:55;6.03;;;1.50;;
13793;SDS011;31160;49.500;7.772;2023-04-29T05:53:22;2.27;;;1.80;;
13793;SDS011;31160;49.500;7.772;2023-04-29T05:55:48;3.67;;;1.73;;
13793;SDS011;31160;49.500;7.772;2023-04-29T05:58:18;3.30;;;1.80;;
13793;SDS011;31160;49.500;7.772;2023-04-29T06:00:45;4.47;;;2.17;;
13793;SDS011;31160;49.500;7.772;2023-04-29T06:03:19;1.83;;;1.50;;
13793;SDS011;31160;49.500;7.772;2023-04-29T06:05:51;2.63;;;1.80;;
13793;SDS011;31160;49.500;7.772;2023-04-29T06:08:37;1.60;;;1.50;;
13793;SDS011;31160;49.500;7.772;2023-04-29T06:11:13;3.00;;;1.93;;
13793;SDS011;31160;49.500;7.772;2023-04-29T06:13:40;2.33;;;1.63;;
13793;SDS011;31160;49.500;7.772;2023-04-29T06:16:07;2.10;;;1.90;;
13793;SDS011;31160;49.500;7.772;2023-04-29T06:18:34;2.63;;;2.10;;
13793;SDS011;31160;49.500;7.772;2023-04-29T06:21:01;2.00;;;1.80;;
13793;SDS011;31160;49.500;7.772;2023-04-29T06:23:28;3.07;;;1.63;;
13793;SDS011;31160;49.500;7.772;2023-04-29T06:25:57;1.80;;;1.67;;
13793;SDS011;31160;49.500;7.772;2023-04-29T06:28:24;4.47;;;1.80;;
13793;SDS011;31160;49.500;7.772;2023-04-29T06:30:50;2.10;;;1.80;;
13793;SDS011;31160;49.500;7.772;2023-04-29T06:33:18;2.93;;;2.20;;
13793;SDS011;31160;49.500;7.772;2023-04-29T06:35:45;5.50;;;2.00;;
13793;SDS011;31160;49.500;7.772;2023-04-29T06:38:30;3.13;;;2.80;;
13793;SDS011;31160;49.500;7.772;2023-04-29T06:41:19;4.73;;;3.03;;
13793;SDS011;31160;49.500;7.772;2023-04-29T06:44:05;4.40;;;2.60;;
13793;SDS011;31160;49.500;7.772;2023-04-29T06:46:37;4.47;;;3.00;;
13793;SDS011;31160;49.500;7.772;2023-04-29T06:49:15;3.60;;;2.80;;
13793;SDS011;31160;49.500;7.772;2023-04-29T06:51:41;3.90;;;2.97;;
13793;SDS011;31160;49.500;7.772;2023-04-29T06:54:08;7.07;;;3.03;;
13793;SDS011;31160;49.500;7.772;2023-04-29T06:56:35;3.77;;;2.97;;
13793;SDS011;31160;49.500;7.772;2023-04-29T06:59:01;6.00;;;3.97;;
13793;SDS011;31160;49.500;7.772;2023-04-29T07:01:29;5.20;;;3.63;;
13793;SDS011;31160;49.500;7.772;2023-04-29T07:03:56;5.10;;;3.23;;
13793;SDS011;31160;49.500;7.772;2023-04-29T07:06:23;5.10;;;3.80;;
13793;SDS011;31160;49.500;7.772;2023-04-29T07:08:50;4.40;;;3.53;;
13793;SDS011;31160;49.500;7.772;2023-04-29T07:11:18;4.10;;;3.53;;
13793;SDS011;31160;49.500;7.772;2023-04-29T07:13:45;8.00;;;4.17;;
13793;SDS011;31160;49.500;7.772;2023-04-29T07:16:15;5.30;;;3.90;;
13793;SDS011;31160;49.500;7.772;2023-04-29T07:18:45;5.10;;;4.23;;
13793;SDS011;31160;49.500;7.772;2023-04-29T07:21:11;5.97;;;3.97;;
13793;SDS011;31160;49.500;7.772;2023-04-29T07:23:39;5.33;;;3.67;;
13793;SDS011;31160;49.500;7.772;2023-04-29T07:26:10;5.57;;;3.87;;
13793;SDS011;31160;49.500;7.772;2023-04-29T07:28:37;5.50;;;4.17;;
13793;SDS011;31160;49.500;7.772;2023-04-29T07:31:04;5.97;;;4.20;;
13793;SDS011;31160;49.500;7.772;2023-04-29T07:33:32;5.83;;;3.83;;
13793;SDS011;31160;49.500;7.772;2023-04-29T07:35:59;5.47;;;3.53;;
13793;SDS011;31160;49.500;7.772;2023-04-29T07:38:27;3.77;;;3.37;;
13793;SDS011;31160;49.500;7.772;2023-04-29T07:40:56;5.50;;;3.97;;
13793;SDS011;31160;49.500;7.772;2023-04-29T07:43:22;6.63;;;4.27;;
13793;SDS011;31160;49.500;7.772;2023-04-29T07:45:49;6.53;;;5.03;;
13793;SDS011;31160;49.500;7.772;2023-04-29T07:48:17;8.37;;;5.77;;
13793;SDS011;31160;49.500;7.772;2023-04-29T07:50:44;9.87;;;5.27;;
13793;SDS011;31160;49.500;7.772;2023-04-29T07:53:11;6.80;;;4.97;;
13793;SDS011;31160;49.500;7.772;2023-04-29T07:55:37;7.90;;;5.50;;
13793;SDS011;31160;49.500;7.772;2023-04-29T07:58:05;9.57;;;4.90;;
13793;SDS011;31160;49.500;7.772;2023-04-29T08:00:32;6.50;;;5.33;;
13793;SDS011;31160;49.500;7.772;2023-04-29T08:02:59;8.87;;;5.63;;
13793;SDS011;31160;49.500;7.772;2023-04-29T08:05:27;17.20;;;12.70;;
13793;SDS011;31160;49.500;7.772;2023-04-29T08:07:56;8.00;;;6.00;;
13793;SDS011;31160;49.500;7.772;2023-04-29T08:10:24;6.47;;;5.40;;
13793;SDS011;31160;49.500;7.772;2023-04-29T08:12:51;7.60;;;5.67;;
13793;SDS011;31160;49.500;7.772;2023-04-29T08:15:18;8.07;;;5.50;;
13793;SDS011;31160;49.500;7.772;2023-04-29T08:17:45;8.57;;;5.97;;
13793;SDS011;31160;49.500;7.772;2023-04-29T08:20:12;7.37;;;4.93;;
13793;SDS011;31160;49.500;7.772;2023-04-29T08:22:40;9.00;;;5.50;;
13793;SDS011;31160;49.500;7.772;2023-04-29T08:25:08;8.07;;;5.53;;
13793;SDS011;31160;49.500;7.772;2023-04-29T08:27:35;8.43;;;5.83;;
13793;SDS011;31160;49.500;7.772;2023-04-29T08:30:02;8.47;;;5.50;;
13793;SDS011;31160;49.500;7.772;2023-04-29T08:32:28;7.23;;;5.67;;
13793;SDS011;31160;49.500;7.772;2023-04-29T08:34:55;10.07;;;6.10;;
13793;SDS011;31160;49.500;7.772;2023-04-29T08:37:22;10.00;;;6.03;;
13793;SDS011;31160;49.500;7.772;2023-04-29T08:39:49;9.33;;;6.30;;
13793;SDS011;31160;49.500;7.772;2023-04-29T08:42:16;10.13;;;5.87;;
13793;SDS011;31160;49.500;7.772;2023-04-29T08:44:53;10.30;;;6.33;;
13793;SDS011;31160;49.500;7.772;2023-04-29T08:47:21;9.47;;;6.00;;
13793;SDS011;31160;49.500;7.772;2023-04-29T08:49:48;9.43;;;5.70;;
13793;SDS011;31160;49.500;7.772;2023-04-29T08:52:15;8.03;;;5.63;;
13793;SDS011;31160;49.500;7.772;2023-04-29T08:54:42;8.70;;;5.33;;
13793;SDS011;31160;49.500;7.772;2023-04-29T08:57:09;8.90;;;5.60;;
13793;SDS011;31160;49.500;7.772;2023-04-29T08:59:37;6.43;;;4.80;;
13793;SDS011;31160;49.500;7.772;2023-04-29T09:02:05;6.20;;;4.60;;
13793;SDS011;31160;49.500;7.772;2023-04-29T09:07:39;7.90;;;5.03;;
13793;SDS011;31160;49.500;7.772;2023-04-29T09:10:07;5.90;;;4.23;;
13793;SDS011;31160;49.500;7.772;2023-04-29T09:12:34;5.63;;;4.03;;
13793;SDS011;31160;49.500;7.772;2023-04-29T09:15:01;9.63;;;4.30;;
13793;SDS011;31160;49.500;7.772;2023-04-29T09:17:39;6.17;;;3.43;;
13793;SDS011;31160;49.500;7.772;2023-04-29T09:20:24;5.50;;;3.73;;
13793;SDS011;31160;49.500;7.772;2023-04-29T09:22:52;6.80;;;4.13;;
13793;SDS011;31160;49.500;7.772;2023-04-29T09:25:21;5.87;;;4.10;;
13793;SDS011;31160;49.500;7.772;2023-04-29T09:27:48;7.03;;;3.80;;
13793;SDS011;31160;49.500;7.772;2023-04-29T09:30:16;6.40;;;3.47;;
13793;SDS011;31160;49.500;7.772;2023-04-29T09:32:44;5.67;;;3.93;;
13793;SDS011;31160;49.500;7.772;2023-04-29T09:35:22;4.87;;;3.50;;
13793;SDS011;31160;49.500;7.772;2023-04-29T09:37:50;4.73;;;3.23;;
13793;SDS011;31160;49.500;7.772;2023-04-29T09:40:27;5.13;;;3.63;;
13793;SDS011;31160;49.500;7.772;2023-04-29T09:43:12;5.80;;;3.83;;
13793;SDS011;31160;49.500;7.772;2023-04-29T09:45:44;5.80;;;3.50;;
13793;SDS011;31160;49.500;7.772;2023-04-29T09:48:12;7.70;;;3.87;;
13793;SDS011;31160;49.500;7.772;2023-04-29T09:50:41;4.10;;;3.20;;
13793;SDS011;31160;49.500;7.772;2023-04-29T09:53:10;7.83;;;3.07;;
13793;SDS011;31160;49.500;7.772;2023-04-29T09:55:56;5.67;;;3.10;;
13793;SDS011;31160;49.500;7.772;2023-04-29T09:58:28;3.93;;;2.90;;
13793;SDS011;31160;49.500;7.772;2023-04-29T10:00:57;3.43;;;2.60;;
13793;SDS011;31160;49.500;7.772;2023-04-29T10:03:28;3.03;;;2.70;;
13793;SDS011;31160;49.500;7.772;2023-04-29T10:06:02;6.30;;;2.90;;
13793;SDS011;31160;49.500;7.772;2023-04-29T10:08:32;4.57;;;3.00;;
13793;SDS011;31160;49.500;7.772;2023-04-29T10:11:00;11.10;;;2.40;;
13793;SDS011;31160;49.500;7.772;2023-04-29T10:13:28;4.97;;;2.57;;
13793;SDS011;31160;49.500;7.772;2023-04-29T10:18:39;3.93;;;2.73;;
13793;SDS011;31160;49.500;7.772;2023-04-29T10:21:07;3.87;;;2.20;;
13793;SDS011;31160;49.500;7.772;2023-04-29T10:23:35;2.97;;;2.67;;
13793;SDS011;31160;49.500;7.772;2023-04-29T10:26:02;3.63;;;2.60;;
13793;SDS011;31160;49.500;7.772;2023-04-29T10:28:31;3.80;;;2.47;;
13793;SDS011;31160;49.500;7.772;2023-04-29T10:31:00;3.90;;;2.20;;
13793;SDS011;31160;49.500;7.772;2023-04-29T10:33:30;2.57;;;2.00;;
13793;SDS011;31160;49.500;7.772;2023-04-29T10:35:59;2.37;;;1.70;;
13793;SDS011;31160;49.500;7.772;2023-04-29T10:38:30;2.20;;;1.93;;
13793;SDS011;31160;49.500;7.772;2023-04-29T10:41:09;2.77;;;2.27;;
13793;SDS011;31160;49.500;7.772;2023-04-29T10:43:44;4.30;;;2.80;;
13793;SDS011;31160;49.500;7.772;2023-04-29T10:46:18;2.80;;;2.53;;
13793;SDS011;31160;49.500;7.772;2023-04-29T10:48:47;2.83;;;2.30;;
13793;SDS011;31160;49.500;7.772;2023-04-29T10:51:34;2.97;;;2.40;;
13793;SDS011;31160;49.500;7.772;2023-04-29T10:59:17;2.50;;;2.10;;
13793;SDS011;31160;49.500;7.772;2023-04-29T11:01:47;3.27;;;2.37;;
13793;SDS011;31160;49.500;7.772;2023-04-29T11:04:16;3.00;;;2.40;;
13793;SDS011;31160;49.500;7.772;2023-04-29T11:06:45;3.07;;;2.63;;
13793;SDS011;31160;49.500;7.772;2023-04-29T11:09:27;5.57;;;2.53;;
13793;SDS011;31160;49.500;7.772;2023-04-29T11:12:00;3.00;;;2.27;;
13793;SDS011;31160;49.500;7.772;2023-04-29T11:14:30;3.10;;;2.77;;
13793;SDS011;31160;49.500;7.772;2023-04-29T11:17:04;4.20;;;2.63;;
13793;SDS011;31160;49.500;7.772;2023-04-29T11:19:35;3.27;;;2.90;;
13793;SDS011;31160;49.500;7.772;2023-04-29T11:22:10;3.27;;;2.70;;
13793;SDS011;31160;49.500;7.772;2023-04-29T11:24:49;3.43;;;2.63;;
13793;SDS011;31160;49.500;7.772;2023-04-29T11:27:35;5.70;;;3.37;;
13793;SDS011;31160;49.500;7.772;2023-04-29T11:30:04;3.73;;;3.10;;
13793;SDS011;31160;49.500;7.772;2023-04-29T11:32:39;5.67;;;3.43;;
13793;SDS011;31160;49.500;7.772;2023-04-29T11:35:11;9.10;;;3.40;;
13793;SDS011;31160;49.500;7.772;2023-04-29T11:37:40;4.17;;;3.40;;
13793;SDS011;31160;49.500;7.772;2023-04-29T11:40:08;3.63;;;3.07;;
13793;SDS011;31160;49.500;7.772;2023-04-29T11:42:48;4.67;;;3.17;;
13793;SDS011;31160;49.500;7.772;2023-04-29T11:45:18;4.53;;;3.67;;
13793;SDS011;31160;49.500;7.772;2023-04-29T11:47:46;4.80;;;3.63;;
13793;SDS011;31160;49.500;7.772;2023-04-29T11:50:14;3.97;;;3.57;;
13793;SDS011;31160;49.500;7.772;2023-04-29T11:52:47;4.97;;;3.30;;
13793;SDS011;31160;49.500;7.772;2023-04-29T11:55:15;4.47;;;3.40;;
13793;SDS011;31160;49.500;7.772;2023-04-29T11:57:42;4.17;;;3.47;;
13793;SDS011;31160;49.500;7.772;2023-04-29T12:00:09;3.63;;;3.07;;
13793;SDS011;31160;49.500;7.772;2023-04-29T12:02:38;3.90;;;3.43;;
13793;SDS011;31160;49.500;7.772;2023-04-29T12:05:08;4.60;;;3.70;;
13793;SDS011;31160;49.500;7.772;2023-04-29T12:07:38;4.67;;;3.37;;
13793;SDS011;31160;49.500;7.772;2023-04-29T12:10:06;4.17;;;3.70;;
13793;SDS011;31160;49.500;7.772;2023-04-29T12:12:35;3.93;;;3.37;;
13793;SDS011;31160;49.500;7.772;2023-04-29T12:15:02;5.27;;;4.13;;
13793;SDS011;31160;49.500;7.772;2023-04-29T12:17:30;5.40;;;3.83;;
13793;SDS011;31160;49.500;7.772;2023-04-29T12:19:57;4.00;;;3.50;;
13793;SDS011;31160;49.500;7.772;2023-04-29T12:22:31;6.03;;;4.03;;
13793;SDS011;31160;49.500;7.772;2023-04-29T12:24:58;4.43;;;3.63;;
13793;SDS011;31160;49.500;7.772;2023-04-29T12:27:25;5.67;;;3.77;;
13793;SDS011;31160;49.500;7.772;2023-04-29T12:29:52;6.50;;;4.10;;
13793;SDS011;31160;49.500;7.772;2023-04-29T12:32:22;7.17;;;5.53;;
13793;SDS011;31160;49.500;7.772;2023-04-29T12:34:50;5.40;;;3.83;;
13793;SDS011;31160;49.500;7.772;2023-04-29T12:37:18;7.30;;;4.13;;
13793;SDS011;31160;49.500;7.772;2023-04-29T12:39:48;6.33;;;4.53;;
13793;SDS011;31160;49.500;7.772;2023-04-29T12:42:16;5.57;;;4.03;;
13793;SDS011;31160;49.500;7.772;2023-04-29T12:44:46;5.80;;;3.93;;
13793;SDS011;31160;49.500;7.772;2023-04-29T12:47:14;7.10;;;4.50;;
13793;SDS011;31160;49.500;7.772;2023-04-29T12:49:45;6.00;;;3.90;;
13793;SDS011;31160;49.500;7.772;2023-04-29T12:52:13;5.23;;;3.70;;
13793;SDS011;31160;49.500;7.772;2023-04-29T12:54:40;7.43;;;4.10;;
13793;SDS011;31160;49.500;7.772;2023-04-29T12:57:09;5.67;;;4.27;;
13793;SDS011;31160;49.500;7.772;2023-04-29T12:59:37;5.37;;;3.90;;
13793;SDS011;31160;49.500;7.772;2023-04-29T13:02:06;6.77;;;3.87;;
13793;SDS011;31160;49.500;7.772;2023-04-29T13:04:33;7.60;;;4.30;;
13793;SDS011;31160;49.500;7.772;2023-04-29T13:07:00;5.73;;;3.60;;
13793;SDS011;31160;49.500;7.772;2023-04-29T13:09:27;4.90;;;3.30;;
13793;SDS011;31160;49.500;7.772;2023-04-29T13:11:55;6.60;;;3.70;;
13793;SDS011;31160;49.500;7.772;2023-04-29T13:14:22;5.13;;;3.50;;
13793;SDS011;31160;49.500;7.772;2023-04-29T13:16:49;4.70;;;3.53;;
13793;SDS011;31160;49.500;7.772;2023-04-29T13:19:16;4.20;;;2.80;;
13793;SDS011;31160;49.500;7.772;2023-04-29T13:21:59;6.17;;;3.30;;
13793;SDS011;31160;49.500;7.772;2023-04-29T13:24:26;5.63;;;3.47;;
13793;SDS011;31160;49.500;7.772;2023-04-29T13:26:53;3.30;;;2.63;;
13793;SDS011;31160;49.500;7.772;2023-04-29T13:29:20;6.07;;;2.77;;
13793;SDS011;31160;49.500;7.772;2023-04-29T13:31:46;4.40;;;2.33;;
13793;SDS011;31160;49.500;7.772;2023-04-29T13:34:13;4.03;;;2.63;;
13793;SDS011;31160;49.500;7.772;2023-04-29T13:36:40;3.97;;;3.23;;
13793;SDS011;31160;49.500;7.772;2023-04-29T13:39:06;3.50;;;2.60;;
13793;SDS011;31160;49.500;7.772;2023-04-29T13:41:34;2.80;;;2.40;;
13793;SDS011;31160;49.500;7.772;2023-04-29T13:44:01;3.70;;;2.40;;
13793;SDS011;31160;49.500;7.772;2023-04-29T13:46:29;2.83;;;2.43;;
13793;SDS011;31160;49.500;7.772;2023-04-29T13:48:57;3.83;;;3.10;;
13793;SDS011;31160;49.500;7.772;2023-04-29T13:51:27;3.20;;;2.70;;
13793;SDS011;31160;49.500;7.772;2023-04-29T13:53:56;3.00;;;2.50;;
13793;SDS011;31160;49.500;7.772;2023-04-29T13:56:43;2.67;;;2.23;;
13793;SDS011;31160;49.500;7.772;2023-04-29T13:59:13;3.27;;;2.43;;
13793;SDS011;31160;49.500;7.772;2023-04-29T14:02:00;3.17;;;2.63;;
13793;SDS011;31160;49.500;7.772;2023-04-29T14:04:29;2.77;;;2.27;;
13793;SDS011;31160;49.500;7.772;2023-04-29T14:06:56;3.13;;;2.20;;
13793;SDS011;31160;49.500;7.772;2023-04-29T14:09:23;2.57;;;2.17;;
13793;SDS011;31160;49.500;7.772;2023-04-29T14:11:50;3.70;;;2.53;;
13793;SDS011;31160;49.500;7.772;2023-04-29T14:14:17;3.63;;;2.43;;
13793;SDS011;31160;49.500;7.772;2023-04-29T14:16:43;2.53;;;2.30;;
13793;SDS011;31160;49.500;7.772;2023-04-29T14:19:10;2.53;;;2.33;;
13793;SDS011;31160;49.500;7.772;2023-04-29T14:21:37;3.13;;;2.83;;
13793;SDS011;31160;49.500;7.772;2023-04-29T14:24:03;4.27;;;3.07;;
13793;SDS011;31160;49.500;7.772;2023-04-29T14:26:30;4.43;;;3.03;;
13793;SDS011;31160;49.500;7.772;2023-04-29T14:28:57;3.63;;;3.03;;
13793;SDS011;31160;49.500;7.772;2023-04-29T14:31:26;3.40;;;2.70;;
13793;SDS011;31160;49.500;7.772;2023-04-29T14:33:54;3.33;;;3.03;;
13793;SDS011;31160;49.500;7.772;2023-04-29T14:36:21;4.00;;;3.20;;
13793;SDS011;31160;49.500;7.772;2023-04-29T14:38:48;3.60;;;2.70;;
13793;SDS011;31160;49.500;7.772;2023-04-29T14:41:15;26.17;;;18.63;;
13793;SDS011;31160;49.500;7.772;2023-04-29T14:43:42;5.00;;;3.43;;
13793;SDS011;31160;49.500;7.772;2023-04-29T14:46:09;5.27;;;3.17;;
13793;SDS011;31160;49.500;7.772;2023-04-29T14:48:36;4.43;;;3.10;;
13793;SDS011;31160;49.500;7.772;2023-04-29T14:51:03;3.00;;;2.70;;
13793;SDS011;31160;49.500;7.772;2023-04-29T14:53:29;3.50;;;3.07;;
13793;SDS011;31160;49.500;7.772;2023-04-29T14:55:56;2.80;;;2.50;;
13793;SDS011;31160;49.500;7.772;2023-04-29T14:58:23;2.90;;;2.50;;
13793;SDS011;31160;49.500;7.772;2023-04-29T15:00:50;5.87;;;2.60;;
13793;SDS011;31160;49.500;7.772;2023-04-29T15:03:17;13.57;;;11.50;;
13793;SDS011;31160;49.500;7.772;2023-04-29T15:05:48;3.83;;;2.10;;
13793;SDS011;31160;49.500;7.772;2023-04-29T15:08:16;3.23;;;2.63;;
13793;SDS011;31160;49.500;7.772;2023-04-29T15:10:44;2.77;;;2.43;;
13793;SDS011;31160;49.500;7.772;2023-04-29T15:13:15;3.03;;;2.40;;
13793;SDS011;31160;49.500;7.772;2023-04-29T15:15:41;3.33;;;2.70;;
13793;SDS011;31160;49.500;7.772;2023-04-29T15:18:08;3.10;;;2.73;;